^^
Saratoga-Weather Station Historical Data
Daily Summary for January 21, 2022 Units:  Both    English   Metric
Daily Weekly Monthly Yearly Custom
  High: Low: Average:
Temperature: 41.5 °F /  5.3 °C 34.2 °F /  1.2 °C 37.2 °F /  2.9 °C
Dew Point: 35.8 °F /  2.1 °C 30.9 °F /  -0.6 °C 33.1 °F /  0.6 °C
Humidity: 93% 73% 85%
Wind Speed: 10.1mph /  16.3km/h - 3.3mph /  5.3km/h
Wind Gust: 13mph /  20.9km/h - -
Wind- - WNW
Pressure: 30.6 in /  1035.2 hPa 30.5 in /  1032.2 hPa -
Precipitation: 0 in /  0.0 mm    
Historical Graphs
 
 
Tabular Data for January 21, 2022
Time Temperature Dew Point Pressure Wind Wind Speed Wind Gust Humidity Rainfall Rate (Hourly) solar
00:04 34.9 °F /  1.6 °C 31.5 °F /  -0.3 °C 30.5in /  1032.2hPa WNW 2.9mph /  4.7km/h 4mph /  6.4km/h 87% 0in /  0.0mm 0 W/m2
00:09 34.7 °F /  1.5 °C 31.5 °F /  -0.3 °C 30.5in /  1032.2hPa West 2mph /  3.2km/h 4mph /  6.4km/h 88% 0in /  0.0mm 0 W/m2
00:14 34.5 °F /  1.4 °C 31.3 °F /  -0.4 °C 30.5in /  1032.5hPa NW 4.9mph /  7.9km/h 8mph /  12.9km/h 88% 0in /  0.0mm 0 W/m2
00:19 34.5 °F /  1.4 °C 31.3 °F /  -0.4 °C 30.5in /  1032.5hPa West 2.9mph /  4.7km/h 6mph /  9.7km/h 88% 0in /  0.0mm 0 W/m2
00:24 34.5 °F /  1.4 °C 31.3 °F /  -0.4 °C 30.5in /  1032.5hPa WSW 4mph /  6.4km/h 8mph /  12.9km/h 88% 0in /  0.0mm 0 W/m2
00:29 34.7 °F /  1.5 °C 31.5 °F /  -0.3 °C 30.5in /  1032.5hPa NW 2.9mph /  4.7km/h 9mph /  14.5km/h 88% 0in /  0.0mm 0 W/m2
00:34 34.9 °F /  1.6 °C 31.6 °F /  -0.2 °C 30.5in /  1032.5hPa WNW 2mph /  3.2km/h 8mph /  12.9km/h 88% 0in /  0.0mm 0 W/m2
00:39 35.1 °F /  1.7 °C 31.8 °F /  -0.1 °C 30.5in /  1032.8hPa West 2.9mph /  4.7km/h 9mph /  14.5km/h 88% 0in /  0.0mm 0 W/m2
00:44 35.1 °F /  1.7 °C 31.6 °F /  -0.2 °C 30.5in /  1032.8hPa WNW 2.9mph /  4.7km/h 9mph /  14.5km/h 87% 0in /  0.0mm 0 W/m2
00:49 35.2 °F /  1.8 °C 31.8 °F /  -0.1 °C 30.5in /  1032.8hPa WNW 4mph /  6.4km/h 8mph /  12.9km/h 87% 0in /  0.0mm 0 W/m2
00:54 35.4 °F /  1.9 °C 32 °F /  0 °C 30.5in /  1032.5hPa WNW 2.9mph /  4.7km/h 6mph /  9.7km/h 87% 0in /  0.0mm 0 W/m2
00:59 35.4 °F /  1.9 °C 32 °F /  0 °C 30.5in /  1032.8hPa NW 0.9mph /  1.4km/h 6mph /  9.7km/h 87% 0in /  0.0mm 0 W/m2
01:04 35.4 °F /  1.9 °C 32 °F /  0 °C 30.5in /  1032.5hPa WSW 2mph /  3.2km/h 3mph /  4.8km/h 87% 0in /  0.0mm 0 W/m2
01:09 35.2 °F /  1.8 °C 31.8 °F /  -0.1 °C 30.5in /  1032.5hPa West 0.9mph /  1.4km/h 6mph /  9.7km/h 87% 0in /  0.0mm 0 W/m2
01:14 35.1 °F /  1.7 °C 31.6 °F /  -0.2 °C 30.5in /  1032.5hPa WNW 2mph /  3.2km/h 4mph /  6.4km/h 87% 0in /  0.0mm 0 W/m2
01:19 34.9 °F /  1.6 °C 31.6 °F /  -0.2 °C 30.5in /  1032.5hPa WNW 4mph /  6.4km/h 4mph /  6.4km/h 88% 0in /  0.0mm 0 W/m2
01:24 34.7 °F /  1.5 °C 31.5 °F /  -0.3 °C 30.5in /  1032.5hPa West 4mph /  6.4km/h 4mph /  6.4km/h 88% 0in /  0.0mm 0 W/m2
01:29 34.5 °F /  1.4 °C 31.3 °F /  -0.4 °C 30.5in /  1032.5hPa NW 2.9mph /  4.7km/h 7mph /  11.3km/h 88% 0in /  0.0mm 0 W/m2
01:34 34.5 °F /  1.4 °C 31.3 °F /  -0.4 °C 30.5in /  1032.5hPa NW 2mph /  3.2km/h 5mph /  8km/h 88% 0in /  0.0mm 0 W/m2
01:39 34.5 °F /  1.4 °C 31.3 °F /  -0.4 °C 30.5in /  1032.5hPa WSW 2.9mph /  4.7km/h 4mph /  6.4km/h 88% 0in /  0.0mm 0 W/m2
01:44 34.5 °F /  1.4 °C 31.3 °F /  -0.4 °C 30.5in /  1032.5hPa WNW 0.9mph /  1.4km/h 4mph /  6.4km/h 88% 0in /  0.0mm 0 W/m2
01:49 34.5 °F /  1.4 °C 31.3 °F /  -0.4 °C 30.5in /  1032.5hPa WNW 0.9mph /  1.4km/h 2mph /  3.2km/h 88% 0in /  0.0mm 0 W/m2
01:54 34.5 °F /  1.4 °C 31.3 °F /  -0.4 °C 30.5in /  1032.5hPa NW 0.9mph /  1.4km/h 3mph /  4.8km/h 88% 0in /  0.0mm 0 W/m2
01:59 34.5 °F /  1.4 °C 31.3 °F /  -0.4 °C 30.5in /  1032.5hPa NW 0.9mph /  1.4km/h 3mph /  4.8km/h 88% 0in /  0.0mm 0 W/m2
02:04 34.3 °F /  1.3 °C 31.1 °F /  -0.5 °C 30.5in /  1032.5hPa WNW 2.9mph /  4.7km/h 4mph /  6.4km/h 88% 0in /  0.0mm 0 W/m2
02:09 34.3 °F /  1.3 °C 31.1 °F /  -0.5 °C 30.5in /  1032.5hPa West 4mph /  6.4km/h 4mph /  6.4km/h 88% 0in /  0.0mm 0 W/m2
02:14 34.3 °F /  1.3 °C 31.1 °F /  -0.5 °C 30.5in /  1032.5hPa WNW 2.9mph /  4.7km/h 4mph /  6.4km/h 88% 0in /  0.0mm 0 W/m2
02:19 34.3 °F /  1.3 °C 31.1 °F /  -0.5 °C 30.5in /  1032.5hPa West 4mph /  6.4km/h 7mph /  11.3km/h 88% 0in /  0.0mm 0 W/m2
02:24 34.3 °F /  1.3 °C 31.1 °F /  -0.5 °C 30.5in /  1032.5hPa West 2.9mph /  4.7km/h 4mph /  6.4km/h 88% 0in /  0.0mm 0 W/m2
02:29 34.3 °F /  1.3 °C 31.1 °F /  -0.5 °C 30.5in /  1032.5hPa West 2.9mph /  4.7km/h 3mph /  4.8km/h 88% 0in /  0.0mm 0 W/m2
02:34 34.2 °F /  1.2 °C 30.9 °F /  -0.6 °C 30.5in /  1032.5hPa WNW 0.9mph /  1.4km/h 3mph /  4.8km/h 88% 0in /  0.0mm 0 W/m2
02:39 34.2 °F /  1.2 °C 30.9 °F /  -0.6 °C 30.5in /  1032.8hPa WNW 0.9mph /  1.4km/h 4mph /  6.4km/h 88% 0in /  0.0mm 0 W/m2
02:44 34.3 °F /  1.3 °C 31.5 °F /  -0.3 °C 30.5in /  1032.8hPa WNW 2mph /  3.2km/h 6mph /  9.7km/h 89% 0in /  0.0mm 0 W/m2
02:49 34.3 °F /  1.3 °C 31.5 °F /  -0.3 °C 30.5in /  1032.8hPa West 2.9mph /  4.7km/h 4mph /  6.4km/h 89% 0in /  0.0mm 0 W/m2
02:54 34.5 °F /  1.4 °C 31.6 °F /  -0.2 °C 30.5in /  1032.8hPa WSW 4.9mph /  7.9km/h 6mph /  9.7km/h 89% 0in /  0.0mm 0 W/m2
02:59 34.7 °F /  1.5 °C 31.5 °F /  -0.3 °C 30.5in /  1032.8hPa West 6mph /  9.7km/h 6mph /  9.7km/h 88% 0in /  0.0mm 0 W/m2
03:04 34.9 °F /  1.6 °C 31.6 °F /  -0.2 °C 30.5in /  1032.8hPa West 4mph /  6.4km/h 7mph /  11.3km/h 88% 0in /  0.0mm 0 W/m2
03:09 34.9 °F /  1.6 °C 31.6 °F /  -0.2 °C 30.5in /  1032.8hPa West 6mph /  9.7km/h 6mph /  9.7km/h 88% 0in /  0.0mm 0 W/m2
03:14 35.1 °F /  1.7 °C 31.8 °F /  -0.1 °C 30.5in /  1032.8hPa West 2mph /  3.2km/h 5mph /  8km/h 88% 0in /  0.0mm 0 W/m2
03:19 35.1 °F /  1.7 °C 31.8 °F /  -0.1 °C 30.5in /  1032.8hPa WNW 2.9mph /  4.7km/h 6mph /  9.7km/h 88% 0in /  0.0mm 0 W/m2
03:24 35.1 °F /  1.7 °C 31.8 °F /  -0.1 °C 30.5in /  1032.8hPa WNW 2.9mph /  4.7km/h 4mph /  6.4km/h 88% 0in /  0.0mm 0 W/m2
03:29 35.1 °F /  1.7 °C 31.8 °F /  -0.1 °C 30.5in /  1032.8hPa WNW 0.9mph /  1.4km/h 5mph /  8km/h 88% 0in /  0.0mm 0 W/m2
03:34 35.2 °F /  1.8 °C 32 °F /  0 °C 30.5in /  1032.8hPa WNW 4mph /  6.4km/h 5mph /  8km/h 88% 0in /  0.0mm 0 W/m2
03:39 35.2 °F /  1.8 °C 31.8 °F /  -0.1 °C 30.5in /  1032.8hPa NW 0.9mph /  1.4km/h 3mph /  4.8km/h 87% 0in /  0.0mm 0 W/m2
03:44 35.1 °F /  1.7 °C 31.6 °F /  -0.2 °C 30.5in /  1032.8hPa West 4mph /  6.4km/h 5mph /  8km/h 87% 0in /  0.0mm 0 W/m2
03:49 35.1 °F /  1.7 °C 31.6 °F /  -0.2 °C 30.5in /  1032.5hPa West 2.9mph /  4.7km/h 6mph /  9.7km/h 87% 0in /  0.0mm 0 W/m2
03:54 35.1 °F /  1.7 °C 31.6 °F /  -0.2 °C 30.5in /  1032.8hPa WSW 2mph /  3.2km/h 4mph /  6.4km/h 87% 0in /  0.0mm 0 W/m2
03:59 35.1 °F /  1.7 °C 31.6 °F /  -0.2 °C 30.5in /  1032.8hPa WNW 2.9mph /  4.7km/h 6mph /  9.7km/h 87% 0in /  0.0mm 0 W/m2
04:04 35.1 °F /  1.7 °C 31.6 °F /  -0.2 °C 30.5in /  1032.8hPa West 2.9mph /  4.7km/h 4mph /  6.4km/h 87% 0in /  0.0mm 0 W/m2
04:09 35.1 °F /  1.7 °C 31.6 °F /  -0.2 °C 30.5in /  1032.8hPa WNW 2mph /  3.2km/h 5mph /  8km/h 87% 0in /  0.0mm 0 W/m2
04:14 35.1 °F /  1.7 °C 31.6 °F /  -0.2 °C 30.5in /  1032.8hPa WNW 2mph /  3.2km/h 4mph /  6.4km/h 87% 0in /  0.0mm 0 W/m2
04:19 35.1 °F /  1.7 °C 31.6 °F /  -0.2 °C 30.5in /  1032.8hPa WNW 2mph /  3.2km/h 5mph /  8km/h 87% 0in /  0.0mm 0 W/m2
04:24 35.1 °F /  1.7 °C 31.6 °F /  -0.2 °C 30.5in /  1032.8hPa WNW 0.9mph /  1.4km/h 4mph /  6.4km/h 87% 0in /  0.0mm 0 W/m2
04:29 35.1 °F /  1.7 °C 31.6 °F /  -0.2 °C 30.5in /  1032.8hPa West 2.9mph /  4.7km/h 4mph /  6.4km/h 87% 0in /  0.0mm 0 W/m2
04:34 35.1 °F /  1.7 °C 31.6 °F /  -0.2 °C 30.5in /  1032.8hPa WSW 2mph /  3.2km/h 6mph /  9.7km/h 87% 0in /  0.0mm 0 W/m2
04:39 35.1 °F /  1.7 °C 31.6 °F /  -0.2 °C 30.5in /  1032.8hPa WSW 4.9mph /  7.9km/h 6mph /  9.7km/h 87% 0in /  0.0mm 0 W/m2
04:44 35.1 °F /  1.7 °C 31.6 °F /  -0.2 °C 30.5in /  1032.8hPa West 2.9mph /  4.7km/h 6mph /  9.7km/h 87% 0in /  0.0mm 0 W/m2
04:49 35.1 °F /  1.7 °C 31.6 °F /  -0.2 °C 30.5in /  1032.8hPa West 2mph /  3.2km/h 3mph /  4.8km/h 87% 0in /  0.0mm 0 W/m2
04:54 35.1 °F /  1.7 °C 31.6 °F /  -0.2 °C 30.5in /  1032.8hPa WNW 2mph /  3.2km/h 3mph /  4.8km/h 87% 0in /  0.0mm 0 W/m2
04:59 35.1 °F /  1.7 °C 31.6 °F /  -0.2 °C 30.5in /  1032.8hPa West 2mph /  3.2km/h 6mph /  9.7km/h 87% 0in /  0.0mm 0 W/m2
05:04 35.1 °F /  1.7 °C 31.6 °F /  -0.2 °C 30.5in /  1033.2hPa West 2.9mph /  4.7km/h 3mph /  4.8km/h 87% 0in /  0.0mm 0 W/m2
05:09 35.1 °F /  1.7 °C 31.6 °F /  -0.2 °C 30.5in /  1033.2hPa WNW 0.9mph /  1.4km/h 6mph /  9.7km/h 87% 0in /  0.0mm 0 W/m2
05:14 35.1 °F /  1.7 °C 31.6 °F /  -0.2 °C 30.5in /  1033.2hPa WNW 2.9mph /  4.7km/h 3mph /  4.8km/h 87% 0in /  0.0mm 0 W/m2
05:19 35.1 °F /  1.7 °C 31.6 °F /  -0.2 °C 30.5in /  1033.2hPa West 2.9mph /  4.7km/h 4mph /  6.4km/h 87% 0in /  0.0mm 0 W/m2
05:24 35.1 °F /  1.7 °C 31.6 °F /  -0.2 °C 30.5in /  1033.2hPa WNW 2mph /  3.2km/h 4mph /  6.4km/h 87% 0in /  0.0mm 0 W/m2
05:29 35.1 °F /  1.7 °C 31.6 °F /  -0.2 °C 30.5in /  1033.2hPa West 2mph /  3.2km/h 4mph /  6.4km/h 87% 0in /  0.0mm 0 W/m2
05:34 34.9 °F /  1.6 °C 31.5 °F /  -0.3 °C 30.5in /  1033.2hPa WSW 2.9mph /  4.7km/h 4mph /  6.4km/h 87% 0in /  0.0mm 0 W/m2
05:39 34.9 °F /  1.6 °C 31.5 °F /  -0.3 °C 30.5in /  1033.2hPa WNW 0.9mph /  1.4km/h 4mph /  6.4km/h 87% 0in /  0.0mm 0 W/m2
05:44 34.9 °F /  1.6 °C 31.5 °F /  -0.3 °C 30.5in /  1033.2hPa NW 2mph /  3.2km/h 2mph /  3.2km/h 87% 0in /  0.0mm 0 W/m2
05:49 34.9 °F /  1.6 °C 31.5 °F /  -0.3 °C 30.5in /  1033.2hPa Calm   4mph /  6.4km/h 87% 0in /  0.0mm 0 W/m2
05:54 34.9 °F /  1.6 °C 31.5 °F /  -0.3 °C 30.5in /  1033.2hPa WNW 2mph /  3.2km/h 3mph /  4.8km/h 87% 0in /  0.0mm 0 W/m2
05:59 34.9 °F /  1.6 °C 31.6 °F /  -0.2 °C 30.5in /  1033.2hPa WNW 2.9mph /  4.7km/h 4mph /  6.4km/h 88% 0in /  0.0mm 0 W/m2
06:04 34.9 °F /  1.6 °C 31.6 °F /  -0.2 °C 30.5in /  1033.5hPa West 2.9mph /  4.7km/h 6mph /  9.7km/h 88% 0in /  0.0mm 0 W/m2
06:09 34.9 °F /  1.6 °C 31.6 °F /  -0.2 °C 30.5in /  1033.5hPa West 2.9mph /  4.7km/h 6mph /  9.7km/h 88% 0in /  0.0mm 0 W/m2
06:14 34.9 °F /  1.6 °C 31.6 °F /  -0.2 °C 30.5in /  1033.2hPa WNW 2.9mph /  4.7km/h 4mph /  6.4km/h 88% 0in /  0.0mm 0 W/m2
06:19 34.9 °F /  1.6 °C 31.6 °F /  -0.2 °C 30.5in /  1033.5hPa WNW 4mph /  6.4km/h 6mph /  9.7km/h 88% 0in /  0.0mm 0 W/m2
06:24 34.9 °F /  1.6 °C 31.6 °F /  -0.2 °C 30.5in /  1033.5hPa West 2mph /  3.2km/h 5mph /  8km/h 88% 0in /  0.0mm 0 W/m2
06:29 34.9 °F /  1.6 °C 31.6 °F /  -0.2 °C 30.5in /  1033.5hPa Calm   6mph /  9.7km/h 88% 0in /  0.0mm 0 W/m2
06:34 34.9 °F /  1.6 °C 31.6 °F /  -0.2 °C 30.5in /  1033.5hPa WNW 2mph /  3.2km/h 4mph /  6.4km/h 88% 0in /  0.0mm 0 W/m2
06:39 34.9 °F /  1.6 °C 31.6 °F /  -0.2 °C 30.5in /  1033.5hPa West 2.9mph /  4.7km/h 4mph /  6.4km/h 88% 0in /  0.0mm 0 W/m2
06:44 34.9 °F /  1.6 °C 31.6 °F /  -0.2 °C 30.5in /  1033.9hPa WNW 2mph /  3.2km/h 3mph /  4.8km/h 88% 0in /  0.0mm 0 W/m2
06:49 34.9 °F /  1.6 °C 31.6 °F /  -0.2 °C 30.5in /  1033.9hPa West 2.9mph /  4.7km/h 4mph /  6.4km/h 88% 0in /  0.0mm 0 W/m2
06:54 34.7 °F /  1.5 °C 31.5 °F /  -0.3 °C 30.5in /  1033.9hPa West 2.9mph /  4.7km/h 4mph /  6.4km/h 88% 0in /  0.0mm 0 W/m2
06:59 34.9 °F /  1.6 °C 31.6 °F /  -0.2 °C 30.5in /  1033.9hPa West 2mph /  3.2km/h 4mph /  6.4km/h 88% 0in /  0.0mm 0 W/m2
07:04 34.9 °F /  1.6 °C 31.6 °F /  -0.2 °C 30.5in /  1033.5hPa West 2mph /  3.2km/h 4mph /  6.4km/h 88% 0in /  0.0mm 0 W/m2
07:09 34.9 °F /  1.6 °C 31.6 °F /  -0.2 °C 30.5in /  1033.5hPa West 2mph /  3.2km/h 6mph /  9.7km/h 88% 0in /  0.0mm 0 W/m2
07:14 34.9 °F /  1.6 °C 31.6 °F /  -0.2 °C 30.5in /  1033.5hPa WNW 2.9mph /  4.7km/h 3mph /  4.8km/h 88% 0in /  0.0mm 0 W/m2
07:19 34.7 °F /  1.5 °C 31.5 °F /  -0.3 °C 30.5in /  1033.9hPa West 2.9mph /  4.7km/h 6mph /  9.7km/h 88% 0in /  0.0mm 0 W/m2
07:24 34.7 °F /  1.5 °C 31.5 °F /  -0.3 °C 30.5in /  1033.9hPa West 2.9mph /  4.7km/h 6mph /  9.7km/h 88% 0in /  0.0mm 0 W/m2
07:29 34.7 °F /  1.5 °C 31.5 °F /  -0.3 °C 30.5in /  1033.9hPa West 2.9mph /  4.7km/h 5mph /  8km/h 88% 0in /  0.0mm 0 W/m2
07:34 34.9 °F /  1.6 °C 31.6 °F /  -0.2 °C 30.5in /  1033.9hPa West 6mph /  9.7km/h 6mph /  9.7km/h 88% 0in /  0.0mm 0 W/m2
07:39 34.9 °F /  1.6 °C 31.6 °F /  -0.2 °C 30.5in /  1033.9hPa WNW 2.9mph /  4.7km/h 6mph /  9.7km/h 88% 0in /  0.0mm 0 W/m2
07:44 35.1 °F /  1.7 °C 31.6 °F /  -0.2 °C 30.5in /  1033.9hPa WNW 0.9mph /  1.4km/h 7mph /  11.3km/h 87% 0in /  0.0mm 0 W/m2
07:49 35.1 °F /  1.7 °C 31.6 °F /  -0.2 °C 30.5in /  1033.9hPa WNW 2mph /  3.2km/h 4mph /  6.4km/h 87% 0in /  0.0mm 0 W/m2
07:54 35.1 °F /  1.7 °C 31.6 °F /  -0.2 °C 30.5in /  1033.9hPa WNW 4mph /  6.4km/h 7mph /  11.3km/h 87% 0in /  0.0mm 0 W/m2
07:59 35.1 °F /  1.7 °C 31.6 °F /  -0.2 °C 30.5in /  1033.9hPa WNW 2mph /  3.2km/h 4mph /  6.4km/h 87% 0in /  0.0mm 0 W/m2
08:04 35.1 °F /  1.7 °C 31.6 °F /  -0.2 °C 30.5in /  1034.2hPa NW 0.9mph /  1.4km/h 3mph /  4.8km/h 87% 0in /  0.0mm 0 W/m2
08:09 35.1 °F /  1.7 °C 31.6 °F /  -0.2 °C 30.5in /  1034.2hPa West 2mph /  3.2km/h 4mph /  6.4km/h 87% 0in /  0.0mm 0 W/m2
08:14 35.1 °F /  1.7 °C 31.6 °F /  -0.2 °C 30.5in /  1034.2hPa WNW 4mph /  6.4km/h 6mph /  9.7km/h 87% 0in /  0.0mm 0 W/m2
08:19 35.1 °F /  1.7 °C 31.6 °F /  -0.2 °C 30.5in /  1034.2hPa West 2.9mph /  4.7km/h 4mph /  6.4km/h 87% 0in /  0.0mm 0 W/m2
08:24 34.9 °F /  1.6 °C 31.5 °F /  -0.3 °C 30.5in /  1034.2hPa WNW 2mph /  3.2km/h 3mph /  4.8km/h 87% 0in /  0.0mm 5 W/m2
08:29 34.7 °F /  1.5 °C 31.3 °F /  -0.4 °C 30.5in /  1034.2hPa WNW 2mph /  3.2km/h 3mph /  4.8km/h 87% 0in /  0.0mm 7 W/m2
08:34 34.7 °F /  1.5 °C 31.5 °F /  -0.3 °C 30.5in /  1034.2hPa WSW 2mph /  3.2km/h 4mph /  6.4km/h 88% 0in /  0.0mm 7 W/m2
08:39 34.5 °F /  1.4 °C 31.3 °F /  -0.4 °C 30.5in /  1034.2hPa WNW 0.9mph /  1.4km/h 3mph /  4.8km/h 88% 0in /  0.0mm 9 W/m2
08:44 34.5 °F /  1.4 °C 31.3 °F /  -0.4 °C 30.5in /  1034.2hPa West 0.9mph /  1.4km/h 2mph /  3.2km/h 88% 0in /  0.0mm 11 W/m2
08:49 34.5 °F /  1.4 °C 31.3 °F /  -0.4 °C 30.5in /  1034.2hPa West 2.9mph /  4.7km/h 3mph /  4.8km/h 88% 0in /  0.0mm 18 W/m2
08:54 34.5 °F /  1.4 °C 31.3 °F /  -0.4 °C 30.5in /  1034.2hPa West 2mph /  3.2km/h 2mph /  3.2km/h 88% 0in /  0.0mm 19 W/m2
08:59 34.3 °F /  1.3 °C 31.1 °F /  -0.5 °C 30.5in /  1034.2hPa West 2mph /  3.2km/h 2mph /  3.2km/h 88% 0in /  0.0mm 23 W/m2
09:04 34.3 °F /  1.3 °C 31.1 °F /  -0.5 °C 30.6in /  1034.5hPa West 2.9mph /  4.7km/h 3mph /  4.8km/h 88% 0in /  0.0mm 28 W/m2
09:09 34.3 °F /  1.3 °C 31.1 °F /  -0.5 °C 30.6in /  1034.5hPa WSW 2mph /  3.2km/h 2mph /  3.2km/h 88% 0in /  0.0mm 23 W/m2
09:14 34.5 °F /  1.4 °C 31.6 °F /  -0.2 °C 30.6in /  1034.5hPa West 2mph /  3.2km/h 4mph /  6.4km/h 89% 0in /  0.0mm 35 W/m2
09:19 34.5 °F /  1.4 °C 31.6 °F /  -0.2 °C 30.6in /  1034.5hPa West 2mph /  3.2km/h 3mph /  4.8km/h 89% 0in /  0.0mm 32 W/m2
09:24 34.7 °F /  1.5 °C 31.5 °F /  -0.3 °C 30.6in /  1034.5hPa NW 4mph /  6.4km/h 5mph /  8km/h 88% 0in /  0.0mm 40 W/m2
09:30 35.1 °F /  1.7 °C 31.8 °F /  -0.1 °C 30.6in /  1034.5hPa West 2mph /  3.2km/h 7mph /  11.3km/h 88% 0in /  0.0mm 40 W/m2
09:35 35.2 °F /  1.8 °C 32 °F /  0 °C 30.6in /  1034.5hPa West 2mph /  3.2km/h 3mph /  4.8km/h 88% 0in /  0.0mm 44 W/m2
09:40 35.4 °F /  1.9 °C 32.2 °F /  0.1 °C 30.6in /  1034.5hPa West 2mph /  3.2km/h 5mph /  8km/h 88% 0in /  0.0mm 58 W/m2
09:45 35.6 °F /  2 °C 32.2 °F /  0.1 °C 30.6in /  1034.5hPa West 2mph /  3.2km/h 2mph /  3.2km/h 87% 0in /  0.0mm 79 W/m2
09:50 36 °F /  2.2 °C 32.5 °F /  0.3 °C 30.6in /  1034.5hPa WNW 2mph /  3.2km/h 4mph /  6.4km/h 87% 0in /  0.0mm 83 W/m2
09:55 36.3 °F /  2.4 °C 32.5 °F /  0.3 °C 30.6in /  1034.5hPa West 6mph /  9.7km/h 7mph /  11.3km/h 86% 0in /  0.0mm 65 W/m2
10:00 36.7 °F /  2.6 °C 32.5 °F /  0.3 °C 30.6in /  1034.5hPa WNW 2mph /  3.2km/h 7mph /  11.3km/h 85% 0in /  0.0mm 35 W/m2
10:05 36.9 °F /  2.7 °C 32.7 °F /  0.4 °C 30.6in /  1034.5hPa West 2mph /  3.2km/h 4mph /  6.4km/h 85% 0in /  0.0mm 25 W/m2
10:10 36.9 °F /  2.7 °C 32.7 °F /  0.4 °C 30.6in /  1034.5hPa West 2.9mph /  4.7km/h 6mph /  9.7km/h 85% 0in /  0.0mm 37 W/m2
10:15 36.9 °F /  2.7 °C 32.7 °F /  0.4 °C 30.6in /  1034.9hPa NNW 2mph /  3.2km/h 6mph /  9.7km/h 85% 0in /  0.0mm 23 W/m2
10:20 36.9 °F /  2.7 °C 32.7 °F /  0.4 °C 30.6in /  1034.9hPa NW 2mph /  3.2km/h 8mph /  12.9km/h 85% 0in /  0.0mm 39 W/m2
10:25 36.9 °F /  2.7 °C 32.7 °F /  0.4 °C 30.6in /  1034.9hPa West 2mph /  3.2km/h 2mph /  3.2km/h 85% 0in /  0.0mm 47 W/m2
10:30 37 °F /  2.8 °C 32.9 °F /  0.5 °C 30.6in /  1034.5hPa WSW 4.9mph /  7.9km/h 5mph /  8km/h 85% 0in /  0.0mm 86 W/m2
10:35 37.2 °F /  2.9 °C 32.9 °F /  0.5 °C 30.6in /  1034.9hPa WNW 0.9mph /  1.4km/h 3mph /  4.8km/h 84% 0in /  0.0mm 79 W/m2
10:40 37.6 °F /  3.1 °C 33.3 °F /  0.7 °C 30.6in /  1034.9hPa NW 0.9mph /  1.4km/h 1mph /  1.6km/h 84% 0in /  0.0mm 67 W/m2
10:45 37.6 °F /  3.1 °C 33.3 °F /  0.7 °C 30.6in /  1034.9hPa NE 0.9mph /  1.4km/h 1mph /  1.6km/h 84% 0in /  0.0mm 107 W/m2
10:50 37.8 °F /  3.2 °C 33.4 °F /  0.8 °C 30.6in /  1034.9hPa Calm   4mph /  6.4km/h 84% 0in /  0.0mm 97 W/m2
10:55 37.9 °F /  3.3 °C 33.6 °F /  0.9 °C 30.6in /  1034.9hPa West 2.9mph /  4.7km/h 4mph /  6.4km/h 84% 0in /  0.0mm 53 W/m2
11:00 37.9 °F /  3.3 °C 33.3 °F /  0.7 °C 30.6in /  1035.2hPa WNW 2mph /  3.2km/h 3mph /  4.8km/h 83% 0in /  0.0mm 53 W/m2
11:05 37.9 °F /  3.3 °C 33.3 °F /  0.7 °C 30.6in /  1034.9hPa WNW 0.9mph /  1.4km/h 3mph /  4.8km/h 83% 0in /  0.0mm 51 W/m2
11:10 37.9 °F /  3.3 °C 33.6 °F /  0.9 °C 30.6in /  1034.9hPa West 2mph /  3.2km/h 4mph /  6.4km/h 84% 0in /  0.0mm 42 W/m2
11:15 37.9 °F /  3.3 °C 33.3 °F /  0.7 °C 30.6in /  1034.9hPa West 2.9mph /  4.7km/h 6mph /  9.7km/h 83% 0in /  0.0mm 51 W/m2
11:20 37.9 °F /  3.3 °C 33.3 °F /  0.7 °C 30.6in /  1034.9hPa NNW 0.9mph /  1.4km/h 3mph /  4.8km/h 83% 0in /  0.0mm 111 W/m2
11:25 38.1 °F /  3.4 °C 33.4 °F /  0.8 °C 30.6in /  1034.9hPa NNW 0.9mph /  1.4km/h 5mph /  8km/h 83% 0in /  0.0mm 109 W/m2
11:30 38.7 °F /  3.7 °C 33.3 °F /  0.7 °C 30.6in /  1035.2hPa North 4mph /  6.4km/h 11mph /  17.7km/h 81% 0in /  0.0mm 97 W/m2
11:35 39 °F /  3.9 °C 33.4 °F /  0.8 °C 30.6in /  1034.9hPa WSW 4mph /  6.4km/h 8mph /  12.9km/h 80% 0in /  0.0mm 91 W/m2
11:40 39.2 °F /  4 °C 33.6 °F /  0.9 °C 30.6in /  1034.9hPa WNW 4mph /  6.4km/h 11mph /  17.7km/h 80% 0in /  0.0mm 105 W/m2
11:45 39.4 °F /  4.1 °C 33.4 °F /  0.8 °C 30.6in /  1034.9hPa WNW 2mph /  3.2km/h 7mph /  11.3km/h 79% 0in /  0.0mm 91 W/m2
11:50 39.6 °F /  4.2 °C 33.6 °F /  0.9 °C 30.6in /  1034.9hPa WNW 4mph /  6.4km/h 6mph /  9.7km/h 79% 0in /  0.0mm 67 W/m2
11:55 39.6 °F /  4.2 °C 33.3 °F /  0.7 °C 30.6in /  1034.9hPa WSW 2mph /  3.2km/h 9mph /  14.5km/h 78% 0in /  0.0mm 58 W/m2
12:00 39.6 °F /  4.2 °C 33.3 °F /  0.7 °C 30.6in /  1034.5hPa West 6mph /  9.7km/h 10mph /  16.1km/h 78% 0in /  0.0mm 47 W/m2
12:05 39.7 °F /  4.3 °C 33.1 °F /  0.6 °C 30.6in /  1034.5hPa WNW 4mph /  6.4km/h 9mph /  14.5km/h 77% 0in /  0.0mm 49 W/m2
12:16 40.3 °F /  4.6 °C 33.6 °F /  0.9 °C 30.6in /  1034.5hPa NW 2.9mph /  4.7km/h 4mph /  6.4km/h 77% 0in /  0.0mm 51 W/m2
12:21 40.3 °F /  4.6 °C 33.1 °F /  0.6 °C 30.6in /  1034.5hPa WNW 2mph /  3.2km/h 4mph /  6.4km/h 75% 0in /  0.0mm 51 W/m2
12:26 40.5 °F /  4.7 °C 33.1 °F /  0.6 °C 30.6in /  1034.5hPa WSW 4mph /  6.4km/h 8mph /  12.9km/h 75% 0in /  0.0mm 44 W/m2
12:31 40.5 °F /  4.7 °C 32.9 °F /  0.5 °C 30.5in /  1034.2hPa NW 2.9mph /  4.7km/h 11mph /  17.7km/h 74% 0in /  0.0mm 46 W/m2
12:36 40.5 °F /  4.7 °C 33.1 °F /  0.6 °C 30.5in /  1034.2hPa WNW 4mph /  6.4km/h 10mph /  16.1km/h 75% 0in /  0.0mm 58 W/m2
12:41 40.5 °F /  4.7 °C 32.9 °F /  0.5 °C 30.5in /  1034.2hPa WSW 4.9mph /  7.9km/h 11mph /  17.7km/h 74% 0in /  0.0mm 54 W/m2
12:46 40.6 °F /  4.8 °C 33.1 °F /  0.6 °C 30.6in /  1034.5hPa NW 2mph /  3.2km/h 6mph /  9.7km/h 74% 0in /  0.0mm 40 W/m2
12:51 40.6 °F /  4.8 °C 32.7 °F /  0.4 °C 30.5in /  1034.2hPa NNE 2mph /  3.2km/h 4mph /  6.4km/h 73% 0in /  0.0mm 30 W/m2
12:56 40.8 °F /  4.9 °C 33.3 °F /  0.7 °C 30.5in /  1034.2hPa WNW 2mph /  3.2km/h 6mph /  9.7km/h 74% 0in /  0.0mm 35 W/m2
13:01 40.8 °F /  4.9 °C 32.9 °F /  0.5 °C 30.5in /  1034.2hPa North 2.9mph /  4.7km/h 4mph /  6.4km/h 73% 0in /  0.0mm 33 W/m2
13:06 41 °F /  5 °C 33.4 °F /  0.8 °C 30.5in /  1034.2hPa West 4mph /  6.4km/h 7mph /  11.3km/h 74% 0in /  0.0mm 46 W/m2
13:11 41.2 °F /  5.1 °C 33.3 °F /  0.7 °C 30.5in /  1034.2hPa NW 0.9mph /  1.4km/h 10mph /  16.1km/h 73% 0in /  0.0mm 58 W/m2
13:16 41.2 °F /  5.1 °C 33.3 °F /  0.7 °C 30.5in /  1034.2hPa Calm   4mph /  6.4km/h 73% 0in /  0.0mm 95 W/m2
13:21 41.4 °F /  5.2 °C 33.6 °F /  0.9 °C 30.5in /  1034.2hPa West 2.9mph /  4.7km/h 10mph /  16.1km/h 74% 0in /  0.0mm 56 W/m2
13:26 41.4 °F /  5.2 °C 33.4 °F /  0.8 °C 30.5in /  1034.2hPa West 6mph /  9.7km/h 6mph /  9.7km/h 73% 0in /  0.0mm 42 W/m2
13:31 41.2 °F /  5.1 °C 33.4 °F /  0.8 °C 30.5in /  1034.2hPa Calm   8mph /  12.9km/h 74% 0in /  0.0mm 49 W/m2
13:36 41 °F /  5 °C 33.6 °F /  0.9 °C 30.5in /  1034.2hPa NW 4mph /  6.4km/h 6mph /  9.7km/h 75% 0in /  0.0mm 113 W/m2
13:41 41.2 °F /  5.1 °C 33.4 °F /  0.8 °C 30.6in /  1034.5hPa NNW 4mph /  6.4km/h 11mph /  17.7km/h 74% 0in /  0.0mm 62 W/m2
13:46 41.2 °F /  5.1 °C 33.4 °F /  0.8 °C 30.5in /  1034.2hPa NNW 4.9mph /  7.9km/h 10mph /  16.1km/h 74% 0in /  0.0mm 51 W/m2
13:51 41 °F /  5 °C 33.6 °F /  0.9 °C 30.5in /  1034.2hPa WSW 6.9mph /  11.1km/h 9mph /  14.5km/h 75% 0in /  0.0mm 113 W/m2
13:56 41 °F /  5 °C 33.4 °F /  0.8 °C 30.5in /  1034.2hPa WNW 4mph /  6.4km/h 10mph /  16.1km/h 74% 0in /  0.0mm 69 W/m2
14:01 40.8 °F /  4.9 °C 33.4 °F /  0.8 °C 30.5in /  1033.9hPa WNW 4.9mph /  7.9km/h 8mph /  12.9km/h 75% 0in /  0.0mm 65 W/m2
14:06 40.8 °F /  4.9 °C 33.3 °F /  0.7 °C 30.5in /  1033.9hPa West 4mph /  6.4km/h 6mph /  9.7km/h 74% 0in /  0.0mm 30 W/m2
14:11 40.6 °F /  4.8 °C 33.3 °F /  0.7 °C 30.5in /  1033.9hPa WNW 2.9mph /  4.7km/h 4mph /  6.4km/h 75% 0in /  0.0mm 35 W/m2
14:16 40.8 °F /  4.9 °C 33.4 °F /  0.8 °C 30.5in /  1033.9hPa WSW 4mph /  6.4km/h 8mph /  12.9km/h 75% 0in /  0.0mm 65 W/m2
14:21 40.8 °F /  4.9 °C 33.4 °F /  0.8 °C 30.5in /  1033.9hPa West 2.9mph /  4.7km/h 6mph /  9.7km/h 75% 0in /  0.0mm 123 W/m2
14:26 41.4 °F /  5.2 °C 34 °F /  1.1 °C 30.5in /  1033.9hPa West 10.1mph /  16.3km/h 10mph /  16.1km/h 75% 0in /  0.0mm 127 W/m2
14:31 41.5 °F /  5.3 °C 33.8 °F /  1 °C 30.5in /  1033.9hPa WNW 2mph /  3.2km/h 9mph /  14.5km/h 74% 0in /  0.0mm 72 W/m2
14:36 41.5 °F /  5.3 °C 33.8 °F /  1 °C 30.5in /  1033.9hPa West 6.9mph /  11.1km/h 7mph /  11.3km/h 74% 0in /  0.0mm 84 W/m2
14:41 41.4 °F /  5.2 °C 33.4 °F /  0.8 °C 30.5in /  1033.9hPa NW 4.9mph /  7.9km/h 8mph /  12.9km/h 73% 0in /  0.0mm 102 W/m2
14:46 41.4 °F /  5.2 °C 33.6 °F /  0.9 °C 30.5in /  1033.9hPa WNW 4mph /  6.4km/h 7mph /  11.3km/h 74% 0in /  0.0mm 77 W/m2
14:51 41.2 °F /  5.1 °C 33.4 °F /  0.8 °C 30.5in /  1033.9hPa West 2.9mph /  4.7km/h 4mph /  6.4km/h 74% 0in /  0.0mm 100 W/m2
14:56 41.2 °F /  5.1 °C 33.8 °F /  1 °C 30.5in /  1033.9hPa WNW 2.9mph /  4.7km/h 6mph /  9.7km/h 75% 0in /  0.0mm 104 W/m2
15:01 41.2 °F /  5.1 °C 34.2 °F /  1.2 °C 30.5in /  1033.9hPa NW 2mph /  3.2km/h 4mph /  6.4km/h 76% 0in /  0.0mm 107 W/m2
15:06 41.2 °F /  5.1 °C 33.8 °F /  1 °C 30.5in /  1033.9hPa West 2.9mph /  4.7km/h 4mph /  6.4km/h 75% 0in /  0.0mm 91 W/m2
15:11 41.2 °F /  5.1 °C 34.2 °F /  1.2 °C 30.5in /  1033.9hPa North 4mph /  6.4km/h 5mph /  8km/h 76% 0in /  0.0mm 58 W/m2
15:16 41.2 °F /  5.1 °C 34.2 °F /  1.2 °C 30.5in /  1034.2hPa WNW 2.9mph /  4.7km/h 3mph /  4.8km/h 76% 0in /  0.0mm 53 W/m2
15:21 41.2 °F /  5.1 °C 34.2 °F /  1.2 °C 30.5in /  1034.2hPa West 4mph /  6.4km/h 7mph /  11.3km/h 76% 0in /  0.0mm 60 W/m2
15:26 41.2 °F /  5.1 °C 34.2 °F /  1.2 °C 30.5in /  1033.9hPa WNW 2.9mph /  4.7km/h 4mph /  6.4km/h 76% 0in /  0.0mm 32 W/m2
15:31 41.2 °F /  5.1 °C 34.2 °F /  1.2 °C 30.5in /  1033.9hPa NW 7mph /  11.3km/h 7mph /  11.3km/h 76% 0in /  0.0mm 49 W/m2
15:36 41.2 °F /  5.1 °C 34.2 °F /  1.2 °C 30.5in /  1033.9hPa WSW 2.9mph /  4.7km/h 5mph /  8km/h 76% 0in /  0.0mm 53 W/m2
15:41 41.2 °F /  5.1 °C 34.2 °F /  1.2 °C 30.5in /  1033.9hPa West 2mph /  3.2km/h 4mph /  6.4km/h 76% 0in /  0.0mm 67 W/m2
15:46 41.2 °F /  5.1 °C 33.8 °F /  1 °C 30.5in /  1034.2hPa NW 2.9mph /  4.7km/h 4mph /  6.4km/h 75% 0in /  0.0mm 40 W/m2
15:51 41.2 °F /  5.1 °C 33.8 °F /  1 °C 30.5in /  1034.2hPa WNW 2.9mph /  4.7km/h 5mph /  8km/h 75% 0in /  0.0mm 26 W/m2
15:56 41.2 °F /  5.1 °C 33.8 °F /  1 °C 30.5in /  1034.2hPa West 2.9mph /  4.7km/h 6mph /  9.7km/h 75% 0in /  0.0mm 12 W/m2
16:01 41 °F /  5 °C 33.6 °F /  0.9 °C 30.5in /  1034.2hPa WNW 2.9mph /  4.7km/h 6mph /  9.7km/h 75% 0in /  0.0mm 40 W/m2
16:06 41 °F /  5 °C 34 °F /  1.1 °C 30.5in /  1034.2hPa WNW 4mph /  6.4km/h 4mph /  6.4km/h 76% 0in /  0.0mm 23 W/m2
16:11 41 °F /  5 °C 34 °F /  1.1 °C 30.5in /  1034.2hPa WSW 6.9mph /  11.1km/h 7mph /  11.3km/h 76% 0in /  0.0mm 23 W/m2
16:16 40.8 °F /  4.9 °C 33.8 °F /  1 °C 30.5in /  1034.2hPa West 4mph /  6.4km/h 5mph /  8km/h 76% 0in /  0.0mm 30 W/m2
16:21 40.8 °F /  4.9 °C 33.8 °F /  1 °C 30.5in /  1034.2hPa NW 4mph /  6.4km/h 5mph /  8km/h 76% 0in /  0.0mm 26 W/m2
16:26 40.8 °F /  4.9 °C 33.8 °F /  1 °C 30.6in /  1034.5hPa NW 6mph /  9.7km/h 9mph /  14.5km/h 76% 0in /  0.0mm 21 W/m2
16:31 40.8 °F /  4.9 °C 33.8 °F /  1 °C 30.6in /  1034.5hPa WNW 2.9mph /  4.7km/h 5mph /  8km/h 76% 0in /  0.0mm 19 W/m2
16:36 40.8 °F /  4.9 °C 33.8 °F /  1 °C 30.6in /  1034.5hPa NW 2.9mph /  4.7km/h 7mph /  11.3km/h 76% 0in /  0.0mm 18 W/m2
16:41 40.8 °F /  4.9 °C 34.2 °F /  1.2 °C 30.6in /  1034.5hPa NW 2.9mph /  4.7km/h 4mph /  6.4km/h 77% 0in /  0.0mm 9 W/m2
16:46 40.6 °F /  4.8 °C 34 °F /  1.1 °C 30.6in /  1034.5hPa NW 0.9mph /  1.4km/h 4mph /  6.4km/h 77% 0in /  0.0mm 9 W/m2
16:51 40.5 °F /  4.7 °C 33.8 °F /  1 °C 30.6in /  1034.5hPa West 2mph /  3.2km/h 3mph /  4.8km/h 77% 0in /  0.0mm 7 W/m2
16:56 40.5 °F /  4.7 °C 34.2 °F /  1.2 °C 30.6in /  1034.5hPa WNW 2mph /  3.2km/h 4mph /  6.4km/h 78% 0in /  0.0mm 7 W/m2
17:01 40.3 °F /  4.6 °C 34 °F /  1.1 °C 30.6in /  1034.5hPa WNW 2.9mph /  4.7km/h 4mph /  6.4km/h 78% 0in /  0.0mm 7 W/m2
17:06 40.3 °F /  4.6 °C 34 °F /  1.1 °C 30.5in /  1034.2hPa West 2mph /  3.2km/h 8mph /  12.9km/h 78% 0in /  0.0mm 5 W/m2
17:11 40.1 °F /  4.5 °C 34.2 °F /  1.2 °C 30.5in /  1034.2hPa WSW 2.9mph /  4.7km/h 7mph /  11.3km/h 79% 0in /  0.0mm 0 W/m2
17:16 39.9 °F /  4.4 °C 34.3 °F /  1.3 °C 30.5in /  1034.2hPa West 2.9mph /  4.7km/h 7mph /  11.3km/h 80% 0in /  0.0mm 0 W/m2
17:21 39.9 °F /  4.4 °C 34.3 °F /  1.3 °C 30.6in /  1034.5hPa West 2.9mph /  4.7km/h 4mph /  6.4km/h 80% 0in /  0.0mm 0 W/m2
17:26 39.7 °F /  4.3 °C 34.3 °F /  1.3 °C 30.6in /  1034.5hPa West 6mph /  9.7km/h 6mph /  9.7km/h 81% 0in /  0.0mm 0 W/m2
17:31 39.6 °F /  4.2 °C 34.9 °F /  1.6 °C 30.6in /  1034.5hPa West 2.9mph /  4.7km/h 6mph /  9.7km/h 83% 0in /  0.0mm 0 W/m2
17:36 39.4 °F /  4.1 °C 34.9 °F /  1.6 °C 30.6in /  1034.5hPa WSW 6.9mph /  11.1km/h 9mph /  14.5km/h 84% 0in /  0.0mm 0 W/m2
17:41 39 °F /  3.9 °C 34.9 °F /  1.6 °C 30.6in /  1034.5hPa WNW 6.9mph /  11.1km/h 9mph /  14.5km/h 85% 0in /  0.0mm 0 W/m2
17:46 38.8 °F /  3.8 °C 35.1 °F /  1.7 °C 30.6in /  1034.5hPa WSW 4.9mph /  7.9km/h 9mph /  14.5km/h 86% 0in /  0.0mm 0 W/m2
17:51 38.7 °F /  3.7 °C 35.1 °F /  1.7 °C 30.5in /  1034.2hPa WNW 2.9mph /  4.7km/h 11mph /  17.7km/h 87% 0in /  0.0mm 0 W/m2
17:56 38.5 °F /  3.6 °C 34.9 °F /  1.6 °C 30.5in /  1034.2hPa West 4mph /  6.4km/h 8mph /  12.9km/h 87% 0in /  0.0mm 0 W/m2
18:01 38.5 °F /  3.6 °C 34.9 °F /  1.6 °C 30.5in /  1034.2hPa WNW 2.9mph /  4.7km/h 11mph /  17.7km/h 87% 0in /  0.0mm 0 W/m2
18:06 38.3 °F /  3.5 °C 34.7 °F /  1.5 °C 30.5in /  1034.2hPa WSW 6.9mph /  11.1km/h 8mph /  12.9km/h 87% 0in /  0.0mm 0 W/m2
18:11 38.1 °F /  3.4 °C 34.9 °F /  1.6 °C 30.5in /  1034.2hPa WNW 4mph /  6.4km/h 10mph /  16.1km/h 88% 0in /  0.0mm 0 W/m2
18:16 38.1 °F /  3.4 °C 34.9 °F /  1.6 °C 30.5in /  1034.2hPa West 6.9mph /  11.1km/h 12mph /  19.3km/h 88% 0in /  0.0mm 0 W/m2
18:21 38.1 °F /  3.4 °C 34.9 °F /  1.6 °C 30.5in /  1034.2hPa West 4mph /  6.4km/h 9mph /  14.5km/h 88% 0in /  0.0mm 0 W/m2
18:26 37.9 °F /  3.3 °C 34.7 °F /  1.5 °C 30.5in /  1034.2hPa WNW 2mph /  3.2km/h 12mph /  19.3km/h 88% 0in /  0.0mm 0 W/m2
18:31 37.9 °F /  3.3 °C 35.1 °F /  1.7 °C 30.5in /  1034.2hPa WSW 2mph /  3.2km/h 7mph /  11.3km/h 89% 0in /  0.0mm 0 W/m2
18:36 37.9 °F /  3.3 °C 35.1 °F /  1.7 °C 30.5in /  1034.2hPa West 6mph /  9.7km/h 9mph /  14.5km/h 89% 0in /  0.0mm 0 W/m2
18:41 37.8 °F /  3.2 °C 34.9 °F /  1.6 °C 30.5in /  1034.2hPa WSW 4.9mph /  7.9km/h 7mph /  11.3km/h 89% 0in /  0.0mm 0 W/m2
18:46 37.8 °F /  3.2 °C 34.9 °F /  1.6 °C 30.5in /  1034.2hPa WNW 2mph /  3.2km/h 9mph /  14.5km/h 89% 0in /  0.0mm 0 W/m2
18:51 37.8 °F /  3.2 °C 34.9 °F /  1.6 °C 30.5in /  1034.2hPa WNW 2mph /  3.2km/h 4mph /  6.4km/h 89% 0in /  0.0mm 0 W/m2
18:56 37.8 °F /  3.2 °C 34.9 °F /  1.6 °C 30.5in /  1034.2hPa WNW 2mph /  3.2km/h 5mph /  8km/h 89% 0in /  0.0mm 0 W/m2
19:01 37.6 °F /  3.1 °C 34.7 °F /  1.5 °C 30.5in /  1034.2hPa WNW 4mph /  6.4km/h 12mph /  19.3km/h 89% 0in /  0.0mm 0 W/m2
19:06 37.6 °F /  3.1 °C 34.7 °F /  1.5 °C 30.5in /  1034.2hPa WSW 4mph /  6.4km/h 9mph /  14.5km/h 89% 0in /  0.0mm 0 W/m2
19:11 37.8 °F /  3.2 °C 34.9 °F /  1.6 °C 30.5in /  1034.2hPa West 4mph /  6.4km/h 7mph /  11.3km/h 89% 0in /  0.0mm 0 W/m2
19:16 37.8 °F /  3.2 °C 34.9 °F /  1.6 °C 30.6in /  1034.5hPa West 6.9mph /  11.1km/h 8mph /  12.9km/h 89% 0in /  0.0mm 0 W/m2
19:21 37.8 °F /  3.2 °C 34.9 °F /  1.6 °C 30.6in /  1034.5hPa West 2.9mph /  4.7km/h 8mph /  12.9km/h 89% 0in /  0.0mm 0 W/m2
19:26 37.8 °F /  3.2 °C 34.9 °F /  1.6 °C 30.6in /  1034.5hPa WSW 4mph /  6.4km/h 7mph /  11.3km/h 89% 0in /  0.0mm 0 W/m2
19:31 37.8 °F /  3.2 °C 35.1 °F /  1.7 °C 30.5in /  1034.2hPa West 6.9mph /  11.1km/h 7mph /  11.3km/h 90% 0in /  0.0mm 0 W/m2
19:36 37.6 °F /  3.1 °C 34.9 °F /  1.6 °C 30.6in /  1034.5hPa West 6.9mph /  11.1km/h 8mph /  12.9km/h 90% 0in /  0.0mm 0 W/m2
19:41 37.6 °F /  3.1 °C 34.9 °F /  1.6 °C 30.5in /  1034.2hPa NNW 2.9mph /  4.7km/h 10mph /  16.1km/h 90% 0in /  0.0mm 0 W/m2
19:46 37.6 °F /  3.1 °C 34.9 °F /  1.6 °C 30.5in /  1034.2hPa West 4mph /  6.4km/h 7mph /  11.3km/h 90% 0in /  0.0mm 0 W/m2
19:51 37.6 °F /  3.1 °C 34.9 °F /  1.6 °C 30.5in /  1034.2hPa West 8.1mph /  13km/h 10mph /  16.1km/h 90% 0in /  0.0mm 0 W/m2
19:56 37.4 °F /  3 °C 34.7 °F /  1.5 °C 30.5in /  1034.2hPa West 2.9mph /  4.7km/h 9mph /  14.5km/h 90% 0in /  0.0mm 0 W/m2
20:01 37.2 °F /  2.9 °C 34.5 °F /  1.4 °C 30.6in /  1034.5hPa NW 4mph /  6.4km/h 10mph /  16.1km/h 90% 0in /  0.0mm 0 W/m2
20:06 37.2 °F /  2.9 °C 34.5 °F /  1.4 °C 30.6in /  1034.5hPa West 6.9mph /  11.1km/h 9mph /  14.5km/h 90% 0in /  0.0mm 0 W/m2
20:11 37.4 °F /  3 °C 34.7 °F /  1.5 °C 30.6in /  1034.5hPa West 4mph /  6.4km/h 11mph /  17.7km/h 90% 0in /  0.0mm 0 W/m2
20:16 37.2 °F /  2.9 °C 34.5 °F /  1.4 °C 30.6in /  1034.5hPa West 8.9mph /  14.3km/h 10mph /  16.1km/h 90% 0in /  0.0mm 0 W/m2
20:21 37.2 °F /  2.9 °C 34.5 °F /  1.4 °C 30.6in /  1034.5hPa West 4mph /  6.4km/h 11mph /  17.7km/h 90% 0in /  0.0mm 0 W/m2
20:26 37.2 °F /  2.9 °C 34.9 °F /  1.6 °C 30.6in /  1034.5hPa WNW 6.9mph /  11.1km/h 10mph /  16.1km/h 91% 0in /  0.0mm 0 W/m2
20:31 37.2 °F /  2.9 °C 34.9 °F /  1.6 °C 30.6in /  1034.5hPa NW 4.9mph /  7.9km/h 13mph /  20.9km/h 91% 0in /  0.0mm 0 W/m2
20:36 37.4 °F /  3 °C 35.1 °F /  1.7 °C 30.6in /  1034.5hPa WNW 2mph /  3.2km/h 8mph /  12.9km/h 91% 0in /  0.0mm 0 W/m2
20:41 37.4 °F /  3 °C 35.1 °F /  1.7 °C 30.6in /  1034.5hPa West 8.9mph /  14.3km/h 13mph /  20.9km/h 91% 0in /  0.0mm 0 W/m2
20:46 37.4 °F /  3 °C 35.1 °F /  1.7 °C 30.6in /  1034.5hPa WNW 2.9mph /  4.7km/h 9mph /  14.5km/h 91% 0in /  0.0mm 0 W/m2
20:51 37.6 °F /  3.1 °C 35.2 °F /  1.8 °C 30.6in /  1034.5hPa WSW 8.1mph /  13km/h 8mph /  12.9km/h 91% 0in /  0.0mm 0 W/m2
20:56 37.6 °F /  3.1 °C 35.2 °F /  1.8 °C 30.6in /  1034.5hPa WNW 8.1mph /  13km/h 9mph /  14.5km/h 91% 0in /  0.0mm 0 W/m2
21:01 37.6 °F /  3.1 °C 35.2 °F /  1.8 °C 30.6in /  1034.5hPa West 6.9mph /  11.1km/h 10mph /  16.1km/h 91% 0in /  0.0mm 0 W/m2
21:06 37.6 °F /  3.1 °C 35.2 °F /  1.8 °C 30.6in /  1034.5hPa WNW 8.9mph /  14.3km/h 10mph /  16.1km/h 91% 0in /  0.0mm 0 W/m2
21:11 37.6 °F /  3.1 °C 35.2 °F /  1.8 °C 30.6in /  1034.5hPa West 8.9mph /  14.3km/h 9mph /  14.5km/h 91% 0in /  0.0mm 0 W/m2
21:17 37.6 °F /  3.1 °C 35.2 °F /  1.8 °C 30.6in /  1034.5hPa West 6mph /  9.7km/h 8mph /  12.9km/h 91% 0in /  0.0mm 0 W/m2
21:22 37.6 °F /  3.1 °C 35.2 °F /  1.8 °C 30.6in /  1034.5hPa WNW 6.9mph /  11.1km/h 8mph /  12.9km/h 91% 0in /  0.0mm 0 W/m2
21:27 37.6 °F /  3.1 °C 35.2 °F /  1.8 °C 30.6in /  1034.5hPa WNW 4mph /  6.4km/h 8mph /  12.9km/h 91% 0in /  0.0mm 0 W/m2
21:32 37.6 °F /  3.1 °C 35.2 °F /  1.8 °C 30.6in /  1034.5hPa WNW 6mph /  9.7km/h 8mph /  12.9km/h 91% 0in /  0.0mm 0 W/m2
21:37 37.8 °F /  3.2 °C 35.4 °F /  1.9 °C 30.6in /  1034.5hPa WSW 2.9mph /  4.7km/h 13mph /  20.9km/h 91% 0in /  0.0mm 0 W/m2
21:42 37.6 °F /  3.1 °C 35.2 °F /  1.8 °C 30.6in /  1034.5hPa West 6mph /  9.7km/h 9mph /  14.5km/h 91% 0in /  0.0mm 0 W/m2
21:47 37.6 °F /  3.1 °C 35.2 °F /  1.8 °C 30.6in /  1034.5hPa WNW 6mph /  9.7km/h 13mph /  20.9km/h 91% 0in /  0.0mm 0 W/m2
21:52 37.6 °F /  3.1 °C 35.2 °F /  1.8 °C 30.6in /  1034.5hPa WNW 4.9mph /  7.9km/h 10mph /  16.1km/h 91% 0in /  0.0mm 0 W/m2
21:57 37.6 °F /  3.1 °C 35.2 °F /  1.8 °C 30.5in /  1034.2hPa West 6.9mph /  11.1km/h 9mph /  14.5km/h 91% 0in /  0.0mm 0 W/m2
22:02 37.6 °F /  3.1 °C 35.2 °F /  1.8 °C 30.5in /  1034.2hPa WSW 4mph /  6.4km/h 10mph /  16.1km/h 91% 0in /  0.0mm 0 W/m2
22:07 37.6 °F /  3.1 °C 35.2 °F /  1.8 °C 30.5in /  1034.2hPa WSW 4.9mph /  7.9km/h 8mph /  12.9km/h 91% 0in /  0.0mm 0 W/m2
22:12 37.4 °F /  3 °C 35.1 °F /  1.7 °C 30.5in /  1033.9hPa WNW 2mph /  3.2km/h 6mph /  9.7km/h 91% 0in /  0.0mm 0 W/m2
22:17 37.2 °F /  2.9 °C 34.9 °F /  1.6 °C 30.5in /  1034.2hPa WSW 4.9mph /  7.9km/h 9mph /  14.5km/h 91% 0in /  0.0mm 0 W/m2
22:22 37.2 °F /  2.9 °C 35.1 °F /  1.7 °C 30.5in /  1034.2hPa West 6mph /  9.7km/h 9mph /  14.5km/h 92% 0in /  0.0mm 0 W/m2
22:27 37.2 °F /  2.9 °C 35.1 °F /  1.7 °C 30.5in /  1034.2hPa West 6mph /  9.7km/h 10mph /  16.1km/h 92% 0in /  0.0mm 0 W/m2
22:32 37.2 °F /  2.9 °C 35.1 °F /  1.7 °C 30.5in /  1034.2hPa NW 2mph /  3.2km/h 9mph /  14.5km/h 92% 0in /  0.0mm 0 W/m2
22:37 37.2 °F /  2.9 °C 35.1 °F /  1.7 °C 30.5in /  1034.2hPa NW 2.9mph /  4.7km/h 9mph /  14.5km/h 92% 0in /  0.0mm 0 W/m2
22:42 37.2 °F /  2.9 °C 35.1 °F /  1.7 °C 30.5in /  1034.2hPa WNW 6.9mph /  11.1km/h 7mph /  11.3km/h 92% 0in /  0.0mm 0 W/m2
22:47 37 °F /  2.8 °C 34.9 °F /  1.6 °C 30.5in /  1034.2hPa SW 2.9mph /  4.7km/h 8mph /  12.9km/h 92% 0in /  0.0mm 0 W/m2
22:52 37.2 °F /  2.9 °C 35.1 °F /  1.7 °C 30.5in /  1034.2hPa NW 2.9mph /  4.7km/h 6mph /  9.7km/h 92% 0in /  0.0mm 0 W/m2
22:57 37.2 °F /  2.9 °C 35.1 °F /  1.7 °C 30.5in /  1034.2hPa NW 2.9mph /  4.7km/h 4mph /  6.4km/h 92% 0in /  0.0mm 0 W/m2
23:02 37.2 °F /  2.9 °C 35.1 °F /  1.7 °C 30.5in /  1034.2hPa West 2.9mph /  4.7km/h 4mph /  6.4km/h 92% 0in /  0.0mm 0 W/m2
23:07 37.2 °F /  2.9 °C 35.4 °F /  1.9 °C 30.5in /  1034.2hPa West 2.9mph /  4.7km/h 9mph /  14.5km/h 93% 0in /  0.0mm 0 W/m2
23:12 37.2 °F /  2.9 °C 35.4 °F /  1.9 °C 30.5in /  1034.2hPa WSW 4.9mph /  7.9km/h 8mph /  12.9km/h 93% 0in /  0.0mm 0 W/m2
23:17 37.2 °F /  2.9 °C 35.4 °F /  1.9 °C 30.5in /  1034.2hPa West 2.9mph /  4.7km/h 7mph /  11.3km/h 93% 0in /  0.0mm 0 W/m2
23:22 37.2 °F /  2.9 °C 35.4 °F /  1.9 °C 30.5in /  1034.2hPa WNW 2mph /  3.2km/h 2mph /  3.2km/h 93% 0in /  0.0mm 0 W/m2
23:27 37.2 °F /  2.9 °C 35.4 °F /  1.9 °C 30.5in /  1034.2hPa WNW 2mph /  3.2km/h 6mph /  9.7km/h 93% 0in /  0.0mm 0 W/m2
23:32 37.4 °F /  3 °C 35.6 °F /  2 °C 30.5in /  1034.2hPa WNW 2mph /  3.2km/h 6mph /  9.7km/h 93% 0in /  0.0mm 0 W/m2
23:37 37.4 °F /  3 °C 35.6 °F /  2 °C 30.5in /  1034.2hPa WSW 4mph /  6.4km/h 4mph /  6.4km/h 93% 0in /  0.0mm 0 W/m2
23:42 37.6 °F /  3.1 °C 35.8 °F /  2.1 °C 30.5in /  1034.2hPa WSW 2.9mph /  4.7km/h 8mph /  12.9km/h 93% 0in /  0.0mm 0 W/m2
23:47 37.6 °F /  3.1 °C 35.4 °F /  1.9 °C 30.5in /  1034.2hPa NW 4mph /  6.4km/h 7mph /  11.3km/h 92% 0in /  0.0mm 0 W/m2
23:52 37.8 °F /  3.2 °C 35.6 °F /  2 °C 30.5in /  1034.2hPa WNW 4.9mph /  7.9km/h 8mph /  12.9km/h 92% 0in /  0.0mm 0 W/m2
23:57 37.8 °F /  3.2 °C 35.6 °F /  2 °C 30.5in /  1034.2hPa SW 2.9mph /  4.7km/h 6mph /  9.7km/h 92% 0in /  0.0mm 0 W/m2
Juneau County Weather
Compliments of Weather Underground - 4 mb